sensor_id;sensor_type;location;lat;lon;timestamp;temperature;humidity
59771;DHT22;45649;53.014;6.600;2023-04-25T00:01:17;8.40;99.90
59771;DHT22;45649;53.014;6.600;2023-04-25T00:03:44;8.40;99.90
59771;DHT22;45649;53.014;6.600;2023-04-25T00:06:11;8.40;99.90
59771;DHT22;45649;53.014;6.600;2023-04-25T00:08:37;8.40;99.90
59771;DHT22;45649;53.014;6.600;2023-04-25T00:11:03;8.40;99.90
59771;DHT22;45649;53.014;6.600;2023-04-25T00:13:29;8.40;99.90
59771;DHT22;45649;53.014;6.600;2023-04-25T00:15:55;8.40;99.90
59771;DHT22;45649;53.014;6.600;2023-04-25T00:18:22;8.40;99.90
59771;DHT22;45649;53.014;6.600;2023-04-25T00:20:48;8.40;99.90
59771;DHT22;45649;53.014;6.600;2023-04-25T00:23:17;8.30;99.90
59771;DHT22;45649;53.014;6.600;2023-04-25T00:25:48;8.30;99.90
59771;DHT22;45649;53.014;6.600;2023-04-25T00:28:14;8.30;99.90
59771;DHT22;45649;53.014;6.600;2023-04-25T00:30:41;8.30;99.90
59771;DHT22;45649;53.014;6.600;2023-04-25T00:33:07;8.30;99.90
59771;DHT22;45649;53.014;6.600;2023-04-25T00:35:33;8.30;99.90
59771;DHT22;45649;53.014;6.600;2023-04-25T00:37:59;8.30;99.90
59771;DHT22;45649;53.014;6.600;2023-04-25T00:40:25;8.30;99.90
59771;DHT22;45649;53.014;6.600;2023-04-25T00:42:52;8.30;99.90
59771;DHT22;45649;53.014;6.600;2023-04-25T00:45:18;8.20;99.90
59771;DHT22;45649;53.014;6.600;2023-04-25T00:47:45;8.20;99.90
59771;DHT22;45649;53.014;6.600;2023-04-25T00:50:11;8.10;99.90
59771;DHT22;45649;53.014;6.600;2023-04-25T00:52:43;8.10;99.90
59771;DHT22;45649;53.014;6.600;2023-04-25T00:55:10;8.10;99.90
59771;DHT22;45649;53.014;6.600;2023-04-25T00:57:36;8.10;99.90
59771;DHT22;45649;53.014;6.600;2023-04-25T01:00:04;8.00;99.90
59771;DHT22;45649;53.014;6.600;2023-04-25T01:02:32;8.00;99.90
59771;DHT22;45649;53.014;6.600;2023-04-25T01:04:58;8.00;99.90
59771;DHT22;45649;53.014;6.600;2023-04-25T01:07:25;8.00;99.90
59771;DHT22;45649;53.014;6.600;2023-04-25T01:09:54;8.00;99.90
59771;DHT22;45649;53.014;6.600;2023-04-25T01:12:20;8.00;99.90
59771;DHT22;45649;53.014;6.600;2023-04-25T01:14:46;8.00;99.90
59771;DHT22;45649;53.014;6.600;2023-04-25T01:17:13;8.00;99.90
59771;DHT22;45649;53.014;6.600;2023-04-25T01:19:38;8.00;99.90
59771;DHT22;45649;53.014;6.600;2023-04-25T01:22:04;8.00;99.90
59771;DHT22;45649;53.014;6.600;2023-04-25T01:24:33;8.00;99.90
59771;DHT22;45649;53.014;6.600;2023-04-25T01:27:00;7.90;99.90
59771;DHT22;45649;53.014;6.600;2023-04-25T01:29:27;7.90;99.90
59771;DHT22;45649;53.014;6.600;2023-04-25T01:31:53;7.90;99.90
59771;DHT22;45649;53.014;6.600;2023-04-25T01:34:19;7.90;99.90
59771;DHT22;45649;53.014;6.600;2023-04-25T01:36:45;7.90;99.90
59771;DHT22;45649;53.014;6.600;2023-04-25T01:39:11;7.80;99.90
59771;DHT22;45649;53.014;6.600;2023-04-25T01:41:37;7.90;99.90
59771;DHT22;45649;53.014;6.600;2023-04-25T01:44:03;7.90;99.90
59771;DHT22;45649;53.014;6.600;2023-04-25T01:46:29;7.90;97.80
59771;DHT22;45649;53.014;6.600;2023-04-25T01:48:55;7.80;96.90
59771;DHT22;45649;53.014;6.600;2023-04-25T01:51:21;7.80;96.60
59771;DHT22;45649;53.014;6.600;2023-04-25T01:53:46;7.90;96.50
59771;DHT22;45649;53.014;6.600;2023-04-25T01:56:12;7.90;96.60
59771;DHT22;45649;53.014;6.600;2023-04-25T01:58:38;7.90;96.30
59771;DHT22;45649;53.014;6.600;2023-04-25T02:03:40;7.80;96.20
59771;DHT22;45649;53.014;6.600;2023-04-25T02:06:06;7.90;96.70
59771;DHT22;45649;53.014;6.600;2023-04-25T02:08:31;7.80;96.50
59771;DHT22;45649;53.014;6.600;2023-04-25T02:10:57;7.80;96.20
59771;DHT22;45649;53.014;6.600;2023-04-25T02:13:23;7.90;96.30
59771;DHT22;45649;53.014;6.600;2023-04-25T02:15:49;7.80;96.40
59771;DHT22;45649;53.014;6.600;2023-04-25T02:18:15;7.80;96.30
59771;DHT22;45649;53.014;6.600;2023-04-25T02:20:42;7.80;96.10
59771;DHT22;45649;53.014;6.600;2023-04-25T02:23:08;7.80;95.90
59771;DHT22;45649;53.014;6.600;2023-04-25T02:25:33;7.80;95.60
59771;DHT22;45649;53.014;6.600;2023-04-25T02:27:59;7.90;96.20
59771;DHT22;45649;53.014;6.600;2023-04-25T02:30:25;7.80;95.50
59771;DHT22;45649;53.014;6.600;2023-04-25T02:32:51;7.80;95.60
59771;DHT22;45649;53.014;6.600;2023-04-25T02:35:17;7.80;95.70
59771;DHT22;45649;53.014;6.600;2023-04-25T02:37:43;7.80;95.50
59771;DHT22;45649;53.014;6.600;2023-04-25T02:40:09;7.80;95.80
59771;DHT22;45649;53.014;6.600;2023-04-25T02:42:35;7.80;95.80
59771;DHT22;45649;53.014;6.600;2023-04-25T02:45:01;7.80;95.80
59771;DHT22;45649;53.014;6.600;2023-04-25T02:47:27;7.80;95.50
59771;DHT22;45649;53.014;6.600;2023-04-25T02:49:52;7.80;95.40
59771;DHT22;45649;53.014;6.600;2023-04-25T02:52:18;7.80;95.80
59771;DHT22;45649;53.014;6.600;2023-04-25T02:54:44;7.70;95.90
59771;DHT22;45649;53.014;6.600;2023-04-25T02:57:10;7.70;95.60
59771;DHT22;45649;53.014;6.600;2023-04-25T02:59:35;7.70;95.60
59771;DHT22;45649;53.014;6.600;2023-04-25T03:02:01;7.70;96.00
59771;DHT22;45649;53.014;6.600;2023-04-25T03:04:27;7.70;95.90
59771;DHT22;45649;53.014;6.600;2023-04-25T03:06:53;7.70;95.90
59771;DHT22;45649;53.014;6.600;2023-04-25T03:09:19;7.70;96.00
59771;DHT22;45649;53.014;6.600;2023-04-25T03:11:45;7.60;95.50
59771;DHT22;45649;53.014;6.600;2023-04-25T03:14:12;7.60;95.00
59771;DHT22;45649;53.014;6.600;2023-04-25T03:16:38;7.60;95.30
59771;DHT22;45649;53.014;6.600;2023-04-25T03:19:05;7.60;95.10
59771;DHT22;45649;53.014;6.600;2023-04-25T03:21:32;7.60;94.40
59771;DHT22;45649;53.014;6.600;2023-04-25T03:24:00;7.60;93.70
59771;DHT22;45649;53.014;6.600;2023-04-25T03:26:26;7.60;93.80
59771;DHT22;45649;53.014;6.600;2023-04-25T03:28:52;7.60;93.10
59771;DHT22;45649;53.014;6.600;2023-04-25T03:31:17;7.50;93.10
59771;DHT22;45649;53.014;6.600;2023-04-25T03:33:43;7.50;93.60
59771;DHT22;45649;53.014;6.600;2023-04-25T03:36:09;7.60;93.30
59771;DHT22;45649;53.014;6.600;2023-04-25T03:38:35;7.60;93.00
59771;DHT22;45649;53.014;6.600;2023-04-25T03:41:02;7.60;93.10
59771;DHT22;45649;53.014;6.600;2023-04-25T03:43:27;7.60;93.80
59771;DHT22;45649;53.014;6.600;2023-04-25T03:45:53;7.50;93.70
59771;DHT22;45649;53.014;6.600;2023-04-25T03:48:19;7.50;93.70
59771;DHT22;45649;53.014;6.600;2023-04-25T03:50:50;7.50;93.70
59771;DHT22;45649;53.014;6.600;2023-04-25T03:53:15;7.50;93.50
59771;DHT22;45649;53.014;6.600;2023-04-25T03:55:41;7.50;93.40
59771;DHT22;45649;53.014;6.600;2023-04-25T03:58:07;7.50;93.60
59771;DHT22;45649;53.014;6.600;2023-04-25T04:00:34;7.40;93.50
59771;DHT22;45649;53.014;6.600;2023-04-25T04:03:00;7.40;93.70
59771;DHT22;45649;53.014;6.600;2023-04-25T04:05:26;7.50;93.80
59771;DHT22;45649;53.014;6.600;2023-04-25T04:07:53;7.40;93.30
59771;DHT22;45649;53.014;6.600;2023-04-25T04:10:19;7.40;92.60
59771;DHT22;45649;53.014;6.600;2023-04-25T04:12:44;7.40;92.90
59771;DHT22;45649;53.014;6.600;2023-04-25T04:15:10;7.30;92.10
59771;DHT22;45649;53.014;6.600;2023-04-25T04:17:37;7.20;91.90
59771;DHT22;45649;53.014;6.600;2023-04-25T04:20:03;7.20;91.70
59771;DHT22;45649;53.014;6.600;2023-04-25T04:22:29;7.20;92.00
59771;DHT22;45649;53.014;6.600;2023-04-25T04:24:55;7.20;91.80
59771;DHT22;45649;53.014;6.600;2023-04-25T04:27:22;7.20;91.60
59771;DHT22;45649;53.014;6.600;2023-04-25T04:29:49;7.10;91.70
59771;DHT22;45649;53.014;6.600;2023-04-25T04:32:15;7.10;92.10
59771;DHT22;45649;53.014;6.600;2023-04-25T04:34:43;7.10;91.50
59771;DHT22;45649;53.014;6.600;2023-04-25T04:37:10;7.10;91.80
59771;DHT22;45649;53.014;6.600;2023-04-25T04:39:38;7.20;91.90
59771;DHT22;45649;53.014;6.600;2023-04-25T04:42:04;7.20;92.30
59771;DHT22;45649;53.014;6.600;2023-04-25T04:44:30;7.10;91.60
59771;DHT22;45649;53.014;6.600;2023-04-25T04:46:59;7.10;91.60
59771;DHT22;45649;53.014;6.600;2023-04-25T04:49:25;7.10;91.60
59771;DHT22;45649;53.014;6.600;2023-04-25T04:51:51;7.10;90.80
59771;DHT22;45649;53.014;6.600;2023-04-25T04:54:17;7.10;91.30
59771;DHT22;45649;53.014;6.600;2023-04-25T04:56:43;7.10;91.60
59771;DHT22;45649;53.014;6.600;2023-04-25T04:59:09;7.10;91.30
59771;DHT22;45649;53.014;6.600;2023-04-25T05:01:34;7.00;91.10
59771;DHT22;45649;53.014;6.600;2023-04-25T05:04:01;7.10;91.20
59771;DHT22;45649;53.014;6.600;2023-04-25T05:06:28;7.10;91.40
59771;DHT22;45649;53.014;6.600;2023-04-25T05:08:57;7.00;91.30
59771;DHT22;45649;53.014;6.600;2023-04-25T05:11:23;7.10;91.40
59771;DHT22;45649;53.014;6.600;2023-04-25T05:13:51;7.10;90.90
59771;DHT22;45649;53.014;6.600;2023-04-25T05:16:17;7.10;90.80
59771;DHT22;45649;53.014;6.600;2023-04-25T05:18:43;7.10;90.90
59771;DHT22;45649;53.014;6.600;2023-04-25T05:21:08;7.10;90.80
59771;DHT22;45649;53.014;6.600;2023-04-25T05:23:34;7.10;91.10
59771;DHT22;45649;53.014;6.600;2023-04-25T05:26:00;7.20;90.90
59771;DHT22;45649;53.014;6.600;2023-04-25T05:28:26;7.20;91.00
59771;DHT22;45649;53.014;6.600;2023-04-25T05:30:51;7.20;91.00
59771;DHT22;45649;53.014;6.600;2023-04-25T05:33:18;7.30;90.50
59771;DHT22;45649;53.014;6.600;2023-04-25T05:35:44;7.30;90.80
59771;DHT22;45649;53.014;6.600;2023-04-25T05:38:10;7.30;90.90
59771;DHT22;45649;53.014;6.600;2023-04-25T05:40:36;7.20;90.70
59771;DHT22;45649;53.014;6.600;2023-04-25T05:43:02;7.30;91.00
59771;DHT22;45649;53.014;6.600;2023-04-25T05:45:28;7.30;91.30
59771;DHT22;45649;53.014;6.600;2023-04-25T05:47:53;7.30;91.20
59771;DHT22;45649;53.014;6.600;2023-04-25T05:50:19;7.40;91.50
59771;DHT22;45649;53.014;6.600;2023-04-25T05:52:45;7.40;91.40
59771;DHT22;45649;53.014;6.600;2023-04-25T05:55:11;7.40;91.30
59771;DHT22;45649;53.014;6.600;2023-04-25T05:57:36;7.40;91.50
59771;DHT22;45649;53.014;6.600;2023-04-25T06:00:03;7.40;91.80
59771;DHT22;45649;53.014;6.600;2023-04-25T06:02:30;7.40;91.70
59771;DHT22;45649;53.014;6.600;2023-04-25T06:04:55;7.50;92.20
59771;DHT22;45649;53.014;6.600;2023-04-25T06:07:21;7.50;91.60
59771;DHT22;45649;53.014;6.600;2023-04-25T06:09:47;7.50;92.10
59771;DHT22;45649;53.014;6.600;2023-04-25T06:12:13;7.50;92.30
59771;DHT22;45649;53.014;6.600;2023-04-25T06:14:39;7.60;92.10
59771;DHT22;45649;53.014;6.600;2023-04-25T06:17:04;7.60;92.10
59771;DHT22;45649;53.014;6.600;2023-04-25T06:19:35;7.60;92.30
59771;DHT22;45649;53.014;6.600;2023-04-25T06:22:01;7.70;92.00
59771;DHT22;45649;53.014;6.600;2023-04-25T06:24:27;7.70;91.80
59771;DHT22;45649;53.014;6.600;2023-04-25T06:26:54;7.70;91.20
59771;DHT22;45649;53.014;6.600;2023-04-25T06:29:19;7.70;91.50
59771;DHT22;45649;53.014;6.600;2023-04-25T06:31:45;7.70;91.40
59771;DHT22;45649;53.014;6.600;2023-04-25T06:34:11;7.80;91.50
59771;DHT22;45649;53.014;6.600;2023-04-25T06:36:37;7.90;91.20
59771;DHT22;45649;53.014;6.600;2023-04-25T06:39:03;8.00;91.20
59771;DHT22;45649;53.014;6.600;2023-04-25T06:41:28;8.10;90.70
59771;DHT22;45649;53.014;6.600;2023-04-25T06:43:54;8.10;90.30
59771;DHT22;45649;53.014;6.600;2023-04-25T06:46:20;8.10;89.10
59771;DHT22;45649;53.014;6.600;2023-04-25T06:48:46;8.10;87.40
59771;DHT22;45649;53.014;6.600;2023-04-25T06:51:11;8.00;87.60
59771;DHT22;45649;53.014;6.600;2023-04-25T06:53:39;7.90;87.00
59771;DHT22;45649;53.014;6.600;2023-04-25T06:56:05;7.90;84.80
59771;DHT22;45649;53.014;6.600;2023-04-25T06:58:31;7.90;85.20
59771;DHT22;45649;53.014;6.600;2023-04-25T07:00:57;7.90;86.20
59771;DHT22;45649;53.014;6.600;2023-04-25T07:03:23;8.00;87.20
59771;DHT22;45649;53.014;6.600;2023-04-25T07:05:49;8.10;86.80
59771;DHT22;45649;53.014;6.600;2023-04-25T07:08:16;8.10;86.80
59771;DHT22;45649;53.014;6.600;2023-04-25T07:10:42;8.10;85.60
59771;DHT22;45649;53.014;6.600;2023-04-25T07:13:08;8.30;86.90
59771;DHT22;45649;53.014;6.600;2023-04-25T07:15:34;8.40;85.90
59771;DHT22;45649;53.014;6.600;2023-04-25T07:18:00;8.50;88.90
59771;DHT22;45649;53.014;6.600;2023-04-25T07:20:26;8.50;86.40
59771;DHT22;45649;53.014;6.600;2023-04-25T07:22:53;8.60;86.40
59771;DHT22;45649;53.014;6.600;2023-04-25T07:25:19;8.60;85.80
59771;DHT22;45649;53.014;6.600;2023-04-25T07:27:45;8.50;83.00
59771;DHT22;45649;53.014;6.600;2023-04-25T07:30:11;8.50;80.90
59771;DHT22;45649;53.014;6.600;2023-04-25T07:32:38;8.40;80.40
59771;DHT22;45649;53.014;6.600;2023-04-25T07:35:04;8.30;81.70
59771;DHT22;45649;53.014;6.600;2023-04-25T07:37:29;8.40;81.20
59771;DHT22;45649;53.014;6.600;2023-04-25T07:39:55;8.30;80.80
59771;DHT22;45649;53.014;6.600;2023-04-25T07:42:21;8.20;78.40
59771;DHT22;45649;53.014;6.600;2023-04-25T07:44:47;8.20;78.00
59771;DHT22;45649;53.014;6.600;2023-04-25T07:47:16;8.20;77.10
59771;DHT22;45649;53.014;6.600;2023-04-25T07:49:42;8.30;77.80
59771;DHT22;45649;53.014;6.600;2023-04-25T07:52:07;8.40;74.80
59771;DHT22;45649;53.014;6.600;2023-04-25T07:54:33;8.40;74.60
59771;DHT22;45649;53.014;6.600;2023-04-25T07:56:59;8.50;72.80
59771;DHT22;45649;53.014;6.600;2023-04-25T07:59:25;8.60;73.60
59771;DHT22;45649;53.014;6.600;2023-04-25T08:01:50;8.60;73.90
59771;DHT22;45649;53.014;6.600;2023-04-25T08:04:16;8.50;73.30
59771;DHT22;45649;53.014;6.600;2023-04-25T08:06:42;8.50;72.40
59771;DHT22;45649;53.014;6.600;2023-04-25T08:09:09;8.50;72.20
59771;DHT22;45649;53.014;6.600;2023-04-25T08:11:35;8.40;72.50
59771;DHT22;45649;53.014;6.600;2023-04-25T08:14:01;8.40;73.30
59771;DHT22;45649;53.014;6.600;2023-04-25T08:16:27;8.40;73.40
59771;DHT22;45649;53.014;6.600;2023-04-25T08:18:53;8.40;73.10
59771;DHT22;45649;53.014;6.600;2023-04-25T08:21:19;8.30;73.00
59771;DHT22;45649;53.014;6.600;2023-04-25T08:23:45;8.30;71.40
59771;DHT22;45649;53.014;6.600;2023-04-25T08:26:11;8.30;71.00
59771;DHT22;45649;53.014;6.600;2023-04-25T08:28:37;8.40;71.60
59771;DHT22;45649;53.014;6.600;2023-04-25T08:31:03;8.40;69.70
59771;DHT22;45649;53.014;6.600;2023-04-25T08:33:29;8.40;71.00
59771;DHT22;45649;53.014;6.600;2023-04-25T08:35:55;8.40;70.90
59771;DHT22;45649;53.014;6.600;2023-04-25T08:38:21;8.60;71.20
59771;DHT22;45649;53.014;6.600;2023-04-25T08:40:49;8.80;72.20
59771;DHT22;45649;53.014;6.600;2023-04-25T08:43:19;8.90;72.90
59771;DHT22;45649;53.014;6.600;2023-04-25T08:45:46;8.90;72.80
59771;DHT22;45649;53.014;6.600;2023-04-25T08:48:15;8.60;75.70
59771;DHT22;45649;53.014;6.600;2023-04-25T08:53:12;7.80;83.30
59771;DHT22;45649;53.014;6.600;2023-04-25T08:55:44;7.60;84.30
59771;DHT22;45649;53.014;6.600;2023-04-25T08:58:11;7.50;85.20
59771;DHT22;45649;53.014;6.600;2023-04-25T09:00:38;7.60;85.80
59771;DHT22;45649;53.014;6.600;2023-04-25T09:03:04;7.60;85.90
59771;DHT22;45649;53.014;6.600;2023-04-25T09:05:30;7.80;85.70
59771;DHT22;45649;53.014;6.600;2023-04-25T09:07:56;8.00;87.10
59771;DHT22;45649;53.014;6.600;2023-04-25T09:10:23;7.80;89.50
59771;DHT22;45649;53.014;6.600;2023-04-25T09:13:10;7.70;90.50
59771;DHT22;45649;53.014;6.600;2023-04-25T09:15:51;7.70;91.50
59771;DHT22;45649;53.014;6.600;2023-04-25T09:20:54;7.90;90.50
59771;DHT22;45649;53.014;6.600;2023-04-25T09:23:21;7.90;90.30
59771;DHT22;45649;53.014;6.600;2023-04-25T09:25:49;8.00;91.00
59771;DHT22;45649;53.014;6.600;2023-04-25T09:28:15;8.00;89.40
59771;DHT22;45649;53.014;6.600;2023-04-25T09:30:41;8.10;88.20
59771;DHT22;45649;53.014;6.600;2023-04-25T09:33:08;8.20;88.00
59771;DHT22;45649;53.014;6.600;2023-04-25T09:35:39;8.30;88.40
59771;DHT22;45649;53.014;6.600;2023-04-25T09:38:23;8.50;89.10
59771;DHT22;45649;53.014;6.600;2023-04-25T09:40:48;8.70;86.70
59771;DHT22;45649;53.014;6.600;2023-04-25T09:45:46;9.10;85.50
59771;DHT22;45649;53.014;6.600;2023-04-25T09:48:22;9.30;84.80
59771;DHT22;45649;53.014;6.600;2023-04-25T09:53:29;9.60;81.10
59771;DHT22;45649;53.014;6.600;2023-04-25T09:55:56;9.70;79.40
59771;DHT22;45649;53.014;6.600;2023-04-25T09:58:25;9.70;79.50
59771;DHT22;45649;53.014;6.600;2023-04-25T10:00:59;9.20;87.80
59771;DHT22;45649;53.014;6.600;2023-04-25T10:03:25;8.80;91.20
59771;DHT22;45649;53.014;6.600;2023-04-25T10:05:52;8.40;91.80
59771;DHT22;45649;53.014;6.600;2023-04-25T10:08:20;8.30;94.70
59771;DHT22;45649;53.014;6.600;2023-04-25T10:10:46;8.30;95.80
59771;DHT22;45649;53.014;6.600;2023-04-25T10:13:14;8.20;95.30
59771;DHT22;45649;53.014;6.600;2023-04-25T10:15:41;8.20;96.30
59771;DHT22;45649;53.014;6.600;2023-04-25T10:18:07;8.20;96.80
59771;DHT22;45649;53.014;6.600;2023-04-25T10:20:33;8.20;98.10
59771;DHT22;45649;53.014;6.600;2023-04-25T10:23:13;8.40;98.40
59771;DHT22;45649;53.014;6.600;2023-04-25T10:25:41;8.50;99.40
59771;DHT22;45649;53.014;6.600;2023-04-25T10:28:07;8.60;98.00
59771;DHT22;45649;53.014;6.600;2023-04-25T10:30:32;8.70;97.00
59771;DHT22;45649;53.014;6.600;2023-04-25T10:32:59;8.90;96.50
59771;DHT22;45649;53.014;6.600;2023-04-25T10:40:24;9.60;92.50
59771;DHT22;45649;53.014;6.600;2023-04-25T10:42:52;9.60;79.80
59771;DHT22;45649;53.014;6.600;2023-04-25T10:45:20;9.60;79.30
59771;DHT22;45649;53.014;6.600;2023-04-25T10:47:46;9.50;75.90
59771;DHT22;45649;53.014;6.600;2023-04-25T10:50:14;9.60;77.90
59771;DHT22;45649;53.014;6.600;2023-04-25T10:52:41;9.70;74.80
59771;DHT22;45649;53.014;6.600;2023-04-25T10:55:07;9.80;72.00
59771;DHT22;45649;53.014;6.600;2023-04-25T10:57:43;10.00;73.80
59771;DHT22;45649;53.014;6.600;2023-04-25T11:00:15;10.10;73.20
59771;DHT22;45649;53.014;6.600;2023-04-25T11:05:28;9.90;78.90
59771;DHT22;45649;53.014;6.600;2023-04-25T11:07:55;9.90;76.10
59771;DHT22;45649;53.014;6.600;2023-04-25T11:10:33;10.00;78.80
59771;DHT22;45649;53.014;6.600;2023-04-25T11:13:01;10.20;77.30
59771;DHT22;45649;53.014;6.600;2023-04-25T11:15:27;10.30;79.10
59771;DHT22;45649;53.014;6.600;2023-04-25T11:17:53;10.50;79.70
59771;DHT22;45649;53.014;6.600;2023-04-25T11:20:19;10.10;78.60
59771;DHT22;45649;53.014;6.600;2023-04-25T11:22:46;9.60;86.20
59771;DHT22;45649;53.014;6.600;2023-04-25T11:25:15;9.10;88.90
59771;DHT22;45649;53.014;6.600;2023-04-25T11:30:17;8.50;93.30
59771;DHT22;45649;53.014;6.600;2023-04-25T11:32:43;8.30;94.60
59771;DHT22;45649;53.014;6.600;2023-04-25T11:35:09;8.50;95.50
59771;DHT22;45649;53.014;6.600;2023-04-25T11:37:36;8.60;96.70
59771;DHT22;45649;53.014;6.600;2023-04-25T11:40:03;8.70;95.70
59771;DHT22;45649;53.014;6.600;2023-04-25T11:42:30;8.90;96.20
59771;DHT22;45649;53.014;6.600;2023-04-25T11:44:55;9.00;96.00
59771;DHT22;45649;53.014;6.600;2023-04-25T11:47:31;9.20;98.30
59771;DHT22;45649;53.014;6.600;2023-04-25T11:50:01;9.40;96.10
59771;DHT22;45649;53.014;6.600;2023-04-25T11:52:44;9.60;95.40
59771;DHT22;45649;53.014;6.600;2023-04-25T11:55:14;9.80;95.20
59771;DHT22;45649;53.014;6.600;2023-04-25T11:57:41;9.80;92.90
59771;DHT22;45649;53.014;6.600;2023-04-25T12:00:09;10.00;91.00
59771;DHT22;45649;53.014;6.600;2023-04-25T12:02:36;10.00;87.50
59771;DHT22;45649;53.014;6.600;2023-04-25T12:05:05;10.10;85.30
59771;DHT22;45649;53.014;6.600;2023-04-25T12:07:31;10.00;77.20
59771;DHT22;45649;53.014;6.600;2023-04-25T12:09:57;10.00;76.20
59771;DHT22;45649;53.014;6.600;2023-04-25T12:12:27;9.90;72.20
59771;DHT22;45649;53.014;6.600;2023-04-25T12:14:53;9.90;71.30
59771;DHT22;45649;53.014;6.600;2023-04-25T12:17:20;9.80;67.20
59771;DHT22;45649;53.014;6.600;2023-04-25T12:19:48;9.80;63.70
59771;DHT22;45649;53.014;6.600;2023-04-25T12:22:24;9.80;62.80
59771;DHT22;45649;53.014;6.600;2023-04-25T12:24:50;9.90;65.60
59771;DHT22;45649;53.014;6.600;2023-04-25T12:27:18;9.90;64.40
59771;DHT22;45649;53.014;6.600;2023-04-25T12:29:52;9.90;64.80
59771;DHT22;45649;53.014;6.600;2023-04-25T12:32:19;9.90;68.80
59771;DHT22;45649;53.014;6.600;2023-04-25T12:34:44;9.90;74.80
59771;DHT22;45649;53.014;6.600;2023-04-25T12:37:10;9.70;74.40
59771;DHT22;45649;53.014;6.600;2023-04-25T12:39:37;9.60;77.20
59771;DHT22;45649;53.014;6.600;2023-04-25T12:42:03;9.60;76.00
59771;DHT22;45649;53.014;6.600;2023-04-25T12:44:29;9.70;76.50
59771;DHT22;45649;53.014;6.600;2023-04-25T12:46:55;9.70;73.90
59771;DHT22;45649;53.014;6.600;2023-04-25T12:49:21;9.90;77.50
59771;DHT22;45649;53.014;6.600;2023-04-25T12:51:46;10.00;75.90
59771;DHT22;45649;53.014;6.600;2023-04-25T12:54:13;10.20;75.30
59771;DHT22;45649;53.014;6.600;2023-04-25T12:56:40;10.20;74.90
59771;DHT22;45649;53.014;6.600;2023-04-25T12:59:06;10.20;75.50
59771;DHT22;45649;53.014;6.600;2023-04-25T13:01:32;10.10;78.60
59771;DHT22;45649;53.014;6.600;2023-04-25T13:03:58;9.70;81.00
59771;DHT22;45649;53.014;6.600;2023-04-25T13:06:23;9.70;84.60
59771;DHT22;45649;53.014;6.600;2023-04-25T13:08:49;9.90;85.90
59771;DHT22;45649;53.014;6.600;2023-04-25T13:11:15;10.00;87.70
59771;DHT22;45649;53.014;6.600;2023-04-25T13:13:41;10.10;83.70
59771;DHT22;45649;53.014;6.600;2023-04-25T13:16:08;10.20;83.40
59771;DHT22;45649;53.014;6.600;2023-04-25T13:18:34;10.20;80.50
59771;DHT22;45649;53.014;6.600;2023-04-25T13:21:00;10.10;77.90
59771;DHT22;45649;53.014;6.600;2023-04-25T13:23:28;10.00;77.20
59771;DHT22;45649;53.014;6.600;2023-04-25T13:25:55;9.90;73.20
59771;DHT22;45649;53.014;6.600;2023-04-25T13:28:23;9.80;72.80
59771;DHT22;45649;53.014;6.600;2023-04-25T13:30:49;9.60;73.80
59771;DHT22;45649;53.014;6.600;2023-04-25T13:33:15;9.50;76.20
59771;DHT22;45649;53.014;6.600;2023-04-25T13:35:41;9.50;81.00
59771;DHT22;45649;53.014;6.600;2023-04-25T13:38:07;9.60;78.30
59771;DHT22;45649;53.014;6.600;2023-04-25T13:40:34;9.60;77.00
59771;DHT22;45649;53.014;6.600;2023-04-25T13:43:00;9.60;73.10
59771;DHT22;45649;53.014;6.600;2023-04-25T13:45:26;9.70;73.00
59771;DHT22;45649;53.014;6.600;2023-04-25T13:47:52;9.70;72.00
59771;DHT22;45649;53.014;6.600;2023-04-25T13:50:18;9.80;68.70
59771;DHT22;45649;53.014;6.600;2023-04-25T13:52:44;9.90;72.70
59771;DHT22;45649;53.014;6.600;2023-04-25T13:55:10;9.90;71.00
59771;DHT22;45649;53.014;6.600;2023-04-25T13:57:36;9.80;71.30
59771;DHT22;45649;53.014;6.600;2023-04-25T14:00:03;9.80;74.60
59771;DHT22;45649;53.014;6.600;2023-04-25T14:02:34;9.60;73.70
59771;DHT22;45649;53.014;6.600;2023-04-25T14:05:01;9.30;74.70
59771;DHT22;45649;53.014;6.600;2023-04-25T14:07:26;9.00;82.20
59771;DHT22;45649;53.014;6.600;2023-04-25T14:09:52;8.80;85.60
59771;DHT22;45649;53.014;6.600;2023-04-25T14:12:18;8.40;88.30
59771;DHT22;45649;53.014;6.600;2023-04-25T14:14:43;8.50;92.00
59771;DHT22;45649;53.014;6.600;2023-04-25T14:17:09;8.50;92.30
59771;DHT22;45649;53.014;6.600;2023-04-25T14:19:35;8.60;90.90
59771;DHT22;45649;53.014;6.600;2023-04-25T14:22:03;8.80;89.90
59771;DHT22;45649;53.014;6.600;2023-04-25T14:24:30;8.90;89.80
59771;DHT22;45649;53.014;6.600;2023-04-25T14:26:56;9.00;86.00
59771;DHT22;45649;53.014;6.600;2023-04-25T14:29:21;9.10;83.20
59771;DHT22;45649;53.014;6.600;2023-04-25T14:31:47;9.10;80.60
59771;DHT22;45649;53.014;6.600;2023-04-25T14:34:13;9.20;81.00
59771;DHT22;45649;53.014;6.600;2023-04-25T14:36:39;9.40;78.30
59771;DHT22;45649;53.014;6.600;2023-04-25T14:39:05;9.50;78.60
59771;DHT22;45649;53.014;6.600;2023-04-25T14:41:31;9.60;78.60
59771;DHT22;45649;53.014;6.600;2023-04-25T14:43:57;9.70;77.20
59771;DHT22;45649;53.014;6.600;2023-04-25T14:46:23;9.70;76.10
59771;DHT22;45649;53.014;6.600;2023-04-25T14:48:49;9.70;78.40
59771;DHT22;45649;53.014;6.600;2023-04-25T14:51:15;9.50;77.90
59771;DHT22;45649;53.014;6.600;2023-04-25T14:53:41;9.50;77.20
59771;DHT22;45649;53.014;6.600;2023-04-25T14:56:07;9.50;79.10
59771;DHT22;45649;53.014;6.600;2023-04-25T14:58:34;9.50;77.80
59771;DHT22;45649;53.014;6.600;2023-04-25T15:01:00;9.70;77.50
59771;DHT22;45649;53.014;6.600;2023-04-25T15:03:27;9.80;74.40
59771;DHT22;45649;53.014;6.600;2023-04-25T15:05:54;9.80;70.60
59771;DHT22;45649;53.014;6.600;2023-04-25T15:08:20;9.70;65.70
59771;DHT22;45649;53.014;6.600;2023-04-25T15:10:47;9.60;65.30
59771;DHT22;45649;53.014;6.600;2023-04-25T15:13:12;9.80;67.60
59771;DHT22;45649;53.014;6.600;2023-04-25T15:15:38;9.80;65.10
59771;DHT22;45649;53.014;6.600;2023-04-25T15:18:05;9.90;65.60
59771;DHT22;45649;53.014;6.600;2023-04-25T15:20:31;10.00;65.80
59771;DHT22;45649;53.014;6.600;2023-04-25T15:22:57;9.90;65.80
59771;DHT22;45649;53.014;6.600;2023-04-25T15:25:23;9.90;67.60
59771;DHT22;45649;53.014;6.600;2023-04-25T15:27:49;9.90;69.30
59771;DHT22;45649;53.014;6.600;2023-04-25T15:30:17;9.70;69.30
59771;DHT22;45649;53.014;6.600;2023-04-25T15:32:45;9.60;70.40
59771;DHT22;45649;53.014;6.600;2023-04-25T15:35:12;9.50;72.30
59771;DHT22;45649;53.014;6.600;2023-04-25T15:37:38;9.40;72.80
59771;DHT22;45649;53.014;6.600;2023-04-25T15:40:07;9.30;71.10
59771;DHT22;45649;53.014;6.600;2023-04-25T15:45:05;9.30;74.40
59771;DHT22;45649;53.014;6.600;2023-04-25T15:47:31;9.40;74.20
59771;DHT22;45649;53.014;6.600;2023-04-25T15:49:58;9.50;71.90
59771;DHT22;45649;53.014;6.600;2023-04-25T15:52:23;9.50;69.90
59771;DHT22;45649;53.014;6.600;2023-04-25T15:54:49;9.60;68.30
59771;DHT22;45649;53.014;6.600;2023-04-25T15:57:17;9.60;68.50
59771;DHT22;45649;53.014;6.600;2023-04-25T15:59:43;9.60;70.10
59771;DHT22;45649;53.014;6.600;2023-04-25T16:02:13;9.70;68.50
59771;DHT22;45649;53.014;6.600;2023-04-25T16:04:38;9.90;71.60
59771;DHT22;45649;53.014;6.600;2023-04-25T16:07:04;9.90;69.50